Time;durP1;ratioP1;P1;durP2;ratioP2;P2;SDS_P1;SDS_P2;PMS_P1;PMS_P2;Temp;Humidity;BMP_temperature;BMP_pressure;BME280_temperature;BME280_humidity;BME280_pressure;Samples;Min_cycle;Max_cycle;Signal;HPM_P1;HPM_P2
2023/05/07 00:01:48;;;;;;;;;;;;;;;14.05;100.00;96476.44;5043011;28;19921;-68
2023/05/07 00:04:14;;;;;;;;;;;;;;;14.00;100.00;96466.59;5032757;28;19924;-67
2023/05/07 00:06:39;;;;;;;;;;;;;;;13.95;100.00;96465.06;5061486;28;19931;-67
2023/05/07 00:09:05;;;;;;;;;;;;;;;13.97;100.00;96464.63;5058618;28;19931;-65
2023/05/07 00:11:30;;;;;;;;;;;;;;;13.96;100.00;96468.59;5063005;28;20281;-66
2023/05/07 00:13:55;;;;;;;;;;;;;;;13.92;100.00;96470.56;5063473;28;19921;-66
2023/05/07 00:16:21;;;;;;;;;;;;;;;13.83;100.00;96468.19;5057811;28;19962;-66
2023/05/07 00:18:46;;;;;;;;;;;;;;;13.91;100.00;96468.97;5063489;28;19970;-67
2023/05/07 00:21:12;;;;;;;;;;;;;;;14.01;100.00;96467.38;5058176;28;19924;-67
2023/05/07 00:23:37;;;;;;;;;;;;;;;14.15;100.00;96461.88;5062719;28;19920;-69
2023/05/07 00:26:03;;;;;;;;;;;;;;;14.31;100.00;96470.50;5059728;28;19917;-65
2023/05/07 00:28:28;;;;;;;;;;;;;;;14.49;100.00;96466.91;5059947;28;19921;-68
2023/05/07 00:30:53;;;;;;;;;;;;;;;14.59;100.00;96471.66;5063264;28;19968;-69
2023/05/07 00:33:20;;;;;;;;;;;;;;;14.58;100.00;96470.06;5058073;28;19923;-67
2023/05/07 00:35:45;;;;;;;;;;;;;;;14.59;100.00;96465.34;5055660;28;19925;-69
2023/05/07 00:38:11;;;;;;;;;;;;;;;14.49;100.00;96462.19;5038157;28;19931;-66
2023/05/07 00:40:36;;;;;;;;;;;;;;;14.52;100.00;96460.63;5041360;28;20011;-66
2023/05/07 00:43:02;;;;;;;;;;;;;;;14.50;100.00;96457.47;5041013;28;19928;-65
2023/05/07 00:45:28;;;;;;;;;;;;;;;14.40;100.00;96450.78;5040158;28;19917;-68
2023/05/07 00:47:57;;;;;;;;;;;;;;;14.05;100.00;96446.94;5042069;28;20358;-68
2023/05/07 00:50:23;;;;;;;;;;;;;;;13.79;100.00;96448.13;5037683;28;19960;-70
2023/05/07 00:52:48;;;;;;;;;;;;;;;13.71;100.00;96446.56;5042754;28;20021;-69
2023/05/07 00:55:14;;;;;;;;;;;;;;;13.68;100.00;96447.34;5046235;28;19917;-67
2023/05/07 00:57:40;;;;;;;;;;;;;;;13.62;100.00;96446.19;5049920;28;19917;-67
2023/05/07 01:00:08;;;;;;;;;;;;;;;13.55;100.00;96444.97;5053520;28;19917;-68
2023/05/07 01:02:33;;;;;;;;;;;;;;;13.47;100.00;96442.63;5062052;28;19961;-68
2023/05/07 01:05:00;;;;;;;;;;;;;;;13.45;100.00;96437.53;5043693;28;19924;-68
2023/05/07 01:07:25;;;;;;;;;;;;;;;13.43;100.00;96448.09;5037587;28;20009;-69
2023/05/07 01:09:51;;;;;;;;;;;;;;;13.42;100.00;96443.81;5042579;28;20033;-68
2023/05/07 01:12:16;;;;;;;;;;;;;;;13.43;100.00;96444.59;5037318;28;19920;-68
2023/05/07 01:14:42;;;;;;;;;;;;;;;13.49;100.00;96443.81;5042336;28;19952;-69
2023/05/07 01:17:08;;;;;;;;;;;;;;;13.58;100.00;96440.69;5036312;28;19927;-68
2023/05/07 01:19:33;;;;;;;;;;;;;;;13.70;100.00;96439.47;5042282;28;20394;-67
2023/05/07 01:22:07;;;;;;;;;;;;;;;13.65;100.00;96448.94;5042332;28;20003;-68
2023/05/07 01:24:33;;;;;;;;;;;;;;;13.49;100.00;96446.56;5041861;28;20285;-68
2023/05/07 01:26:58;;;;;;;;;;;;;;;13.44;100.00;96446.16;5023617;28;19920;-67
2023/05/07 01:29:24;;;;;;;;;;;;;;;13.41;100.00;96450.47;5037369;28;19921;-68
2023/05/07 01:31:50;;;;;;;;;;;;;;;13.37;100.00;96453.22;5041807;28;19952;-68
2023/05/07 01:34:17;;;;;;;;;;;;;;;13.35;100.00;96439.06;5036912;28;20015;-68
2023/05/07 01:36:43;;;;;;;;;;;;;;;13.43;100.00;96439.09;5026765;28;19917;-69
2023/05/07 01:39:09;;;;;;;;;;;;;;;13.51;100.00;96441.44;5017355;28;19986;-68
2023/05/07 01:41:34;;;;;;;;;;;;;;;13.56;100.00;96434.78;5019971;28;19921;-67
2023/05/07 01:44:01;;;;;;;;;;;;;;;13.59;100.00;96436.72;5021550;28;19928;-68
2023/05/07 01:46:26;;;;;;;;;;;;;;;13.38;100.00;96452.06;5016136;28;19921;-69
2023/05/07 01:48:51;;;;;;;;;;;;;;;13.24;100.00;96442.97;5022243;28;19921;-68
2023/05/07 01:51:17;;;;;;;;;;;;;;;13.22;100.00;96446.09;5016816;28;19924;-68
2023/05/07 01:53:43;;;;;;;;;;;;;;;13.17;100.00;96452.75;5024971;28;19917;-68
2023/05/07 01:56:08;;;;;;;;;;;;;;;13.15;100.00;96457.88;5034839;28;20409;-68
2023/05/07 01:58:34;;;;;;;;;;;;;;;13.13;100.00;96453.94;5056427;28;20024;-67
2023/05/07 02:01:00;;;;;;;;;;;;;;;13.18;100.00;96445.28;5036123;28;19917;-69
2023/05/07 02:03:25;;;;;;;;;;;;;;;13.33;100.00;96451.66;5025776;28;19962;-68
2023/05/07 02:05:50;;;;;;;;;;;;;;;13.29;100.00;96448.06;5045002;28;19921;-67
2023/05/07 02:08:16;;;;;;;;;;;;;;;13.17;100.00;96449.22;5034515;28;20420;-67
2023/05/07 02:10:41;;;;;;;;;;;;;;;13.00;100.00;96451.56;5041455;28;20369;-67
2023/05/07 02:13:06;;;;;;;;;;;;;;;12.95;100.00;96446.44;5036634;28;19917;-68
2023/05/07 02:15:32;;;;;;;;;;;;;;;12.94;100.00;96441.31;5039463;28;19924;-69
2023/05/07 02:17:58;;;;;;;;;;;;;;;12.95;100.00;96451.94;5041333;28;20011;-69
2023/05/07 02:20:24;;;;;;;;;;;;;;;12.93;100.00;96442.50;5034287;28;20242;-68
2023/05/07 02:22:49;;;;;;;;;;;;;;;12.90;100.00;96446.81;5041305;28;19924;-68
2023/05/07 02:25:14;;;;;;;;;;;;;;;12.82;100.00;96450.72;5034745;28;19956;-67
2023/05/07 02:27:40;;;;;;;;;;;;;;;12.84;100.00;96459.34;5041404;28;19917;-69
2023/05/07 02:30:05;;;;;;;;;;;;;;;12.83;100.00;96455.03;5018106;28;19923;-67
2023/05/07 02:32:31;;;;;;;;;;;;;;;12.76;100.00;96455.00;5040966;28;19917;-68
2023/05/07 02:34:56;;;;;;;;;;;;;;;12.66;100.00;96453.78;5040878;28;19921;-68
2023/05/07 02:37:21;;;;;;;;;;;;;;;12.56;100.00;96455.31;5016841;28;19925;-68
2023/05/07 02:39:47;;;;;;;;;;;;;;;12.48;100.00;96450.97;5020974;28;20408;-66
2023/05/07 02:42:12;;;;;;;;;;;;;;;12.49;100.00;96444.28;5013802;28;19921;-65
2023/05/07 02:44:37;;;;;;;;;;;;;;;12.43;100.00;96452.09;5021786;28;19967;-68
2023/05/07 02:47:03;;;;;;;;;;;;;;;12.41;100.00;96450.94;5018978;28;19975;-65
2023/05/07 02:49:28;;;;;;;;;;;;;;;12.33;100.00;96461.06;5023140;28;20432;-70
2023/05/07 02:51:55;;;;;;;;;;;;;;;12.34;100.00;96450.91;5024981;28;19917;-67
2023/05/07 02:54:20;;;;;;;;;;;;;;;12.39;100.00;96445.03;5022358;28;19996;-68
2023/05/07 02:56:45;;;;;;;;;;;;;;;12.38;100.00;96441.47;5040466;28;20318;-66
2023/05/07 02:59:11;;;;;;;;;;;;;;;12.34;100.00;96450.91;5046185;28;19963;-68
2023/05/07 03:01:36;;;;;;;;;;;;;;;12.31;100.00;96452.44;5044160;28;19921;-68
2023/05/07 03:04:01;;;;;;;;;;;;;;;12.28;100.00;96447.72;5055969;28;19927;-68
2023/05/07 03:06:26;;;;;;;;;;;;;;;12.26;100.00;96447.28;5039773;28;19917;-68
2023/05/07 03:08:52;;;;;;;;;;;;;;;12.22;100.00;96443.75;5035742;28;20440;-68
2023/05/07 03:11:17;;;;;;;;;;;;;;;12.17;100.00;96461.38;5020189;28;19917;-70
2023/05/07 03:13:42;;;;;;;;;;;;;;;12.08;100.00;96458.16;5040117;28;19962;-70
2023/05/07 03:16:08;;;;;;;;;;;;;;;12.03;100.00;96464.03;5038310;28;19917;-70
2023/05/07 03:18:33;;;;;;;;;;;;;;;11.98;100.00;96464.41;5044061;28;20281;-70
2023/05/07 03:20:58;;;;;;;;;;;;;;;11.82;100.00;96465.41;5043877;28;19924;-68
2023/05/07 03:23:23;;;;;;;;;;;;;;;11.66;100.00;96456.66;5039470;28;20039;-69
2023/05/07 03:25:49;;;;;;;;;;;;;;;11.52;100.00;96451.06;5044174;28;19921;-68
2023/05/07 03:28:14;;;;;;;;;;;;;;;11.36;100.00;96449.38;5038366;28;20277;-69
2023/05/07 03:30:39;;;;;;;;;;;;;;;11.22;100.00;96450.03;5044309;28;20568;-68
2023/05/07 03:33:07;;;;;;;;;;;;;;;11.14;100.00;96453.06;5038258;28;20140;-68
2023/05/07 03:35:32;;;;;;;;;;;;;;;11.24;100.00;96458.66;5022613;28;19953;-69
2023/05/07 03:37:57;;;;;;;;;;;;;;;11.37;100.00;96463.88;5024301;28;19963;-68
2023/05/07 03:40:22;;;;;;;;;;;;;;;11.40;100.00;96463.91;5019645;28;20443;-68
2023/05/07 03:42:48;;;;;;;;;;;;;;;11.46;100.00;96467.84;5023587;28;19924;-67
2023/05/07 03:45:13;;;;;;;;;;;;;;;11.51;100.00;96464.00;5020562;28;19975;-66
2023/05/07 03:47:38;;;;;;;;;;;;;;;11.56;100.00;96474.63;5023811;28;20061;-69
2023/05/07 03:50:04;;;;;;;;;;;;;;;11.54;100.00;96468.72;5020179;28;19917;-65
2023/05/07 03:52:29;;;;;;;;;;;;;;;11.57;100.00;96469.91;5023643;28;19924;-67
2023/05/07 03:54:54;;;;;;;;;;;;;;;11.51;100.00;96469.47;5027272;28;19917;-68
2023/05/07 03:57:20;;;;;;;;;;;;;;;11.42;100.00;96464.31;5027097;28;19917;-68
2023/05/07 03:59:45;;;;;;;;;;;;;;;11.40;100.00;96476.81;5051507;28;19923;-66
2023/05/07 04:02:11;;;;;;;;;;;;;;;11.41;100.00;96476.44;5032616;28;19948;-69
2023/05/07 04:04:36;;;;;;;;;;;;;;;11.44;100.00;96480.38;5036749;28;19956;-68
2023/05/07 04:07:01;;;;;;;;;;;;;;;11.40;100.00;96474.88;5042465;28;19966;-69
2023/05/07 04:09:27;;;;;;;;;;;;;;;11.36;100.00;96484.22;5038647;28;20369;-67
2023/05/07 04:11:52;;;;;;;;;;;;;;;11.28;100.00;96480.63;5043190;28;19928;-67
2023/05/07 04:14:19;;;;;;;;;;;;;;;11.30;100.00;96492.00;5038903;28;19948;-69
2023/05/07 04:16:45;;;;;;;;;;;;;;;11.23;100.00;96480.94;5025265;28;20374;-69
2023/05/07 04:19:11;;;;;;;;;;;;;;;11.35;100.00;96488.13;5038052;28;19916;-68
2023/05/07 04:21:36;;;;;;;;;;;;;;;11.53;100.00;96491.03;5043515;28;19927;-67
2023/05/07 04:24:05;;;;;;;;;;;;;;;11.66;100.00;96478.63;5041794;28;19921;-65
2023/05/07 04:26:31;;;;;;;;;;;;;;;11.77;100.00;96478.69;5042729;28;19991;-67
2023/05/07 04:28:58;;;;;;;;;;;;;;;11.86;100.00;96479.16;5041023;28;19921;-68
2023/05/07 04:31:25;;;;;;;;;;;;;;;11.96;100.00;96475.75;5039526;28;19935;-68
2023/05/07 04:33:51;;;;;;;;;;;;;;;12.04;100.00;96491.09;5025811;28;19917;-68
2023/05/07 04:36:17;;;;;;;;;;;;;;;12.14;100.00;96491.56;5028639;28;19921;-69
2023/05/07 04:38:42;;;;;;;;;;;;;;;12.12;100.00;96491.94;5022741;28;19975;-69
2023/05/07 04:41:08;;;;;;;;;;;;;;;12.15;100.00;96493.13;5017739;28;20348;-69
2023/05/07 04:43:33;;;;;;;;;;;;;;;12.30;100.00;96485.75;5023298;28;20032;-69
2023/05/07 04:45:59;;;;;;;;;;;;;;;12.49;100.00;96487.44;5020063;28;20092;-68
2023/05/07 04:48:24;;;;;;;;;;;;;;;12.61;100.00;96482.41;5017965;28;20397;-68
2023/05/07 04:50:50;;;;;;;;;;;;;;;12.86;100.00;96484.50;5022565;28;19917;-69
2023/05/07 04:53:16;;;;;;;;;;;;;;;12.97;100.00;96485.31;5018359;28;19975;-68
2023/05/07 04:55:41;;;;;;;;;;;;;;;12.86;100.00;96481.75;5022222;28;19917;-69
2023/05/07 04:58:06;;;;;;;;;;;;;;;13.12;100.00;96490.84;5036144;28;19920;-67
2023/05/07 05:00:32;;;;;;;;;;;;;;;14.13;100.00;96491.78;5054369;28;19922;-69
2023/05/07 05:02:57;;;;;;;;;;;;;;;15.60;100.00;96494.00;5059074;28;19923;-69
2023/05/07 05:05:22;;;;;;;;;;;;;;;17.15;98.14;96498.09;5028462;28;19927;-68
2023/05/07 05:07:47;;;;;;;;;;;;;;;18.32;80.85;96505.84;5040558;28;19916;-70
2023/05/07 05:10:13;;;;;;;;;;;;;;;19.23;73.80;96510.50;5037711;28;19943;-67
2023/05/07 05:12:38;;;;;;;;;;;;;;;19.80;69.55;96509.28;5037666;28;20366;-66
2023/05/07 05:15:04;;;;;;;;;;;;;;;20.12;66.52;96512.53;5039175;28;19932;-64
2023/05/07 05:17:29;;;;;;;;;;;;;;;20.76;62.79;96515.66;5041460;28;19960;-69
2023/05/07 05:19:55;;;;;;;;;;;;;;;20.84;64.14;96519.06;5041846;28;19975;-67
2023/05/07 05:22:20;;;;;;;;;;;;;;;21.26;59.79;96522.63;5036638;28;19928;-69
2023/05/07 05:24:45;;;;;;;;;;;;;;;21.06;62.72;96530.38;5041533;28;20563;-70
2023/05/07 05:27:10;;;;;;;;;;;;;;;21.51;61.90;96535.09;5036842;28;19921;-67
2023/05/07 05:29:36;;;;;;;;;;;;;;;22.09;58.29;96529.31;5043681;28;20015;-66
2023/05/07 05:32:01;;;;;;;;;;;;;;;22.35;57.29;96542.50;5041514;28;19928;-65
2023/05/07 05:34:27;;;;;;;;;;;;;;;22.31;56.99;96540.59;5037248;28;19921;-65
2023/05/07 05:36:52;;;;;;;;;;;;;;;22.90;55.97;96538.22;5026049;28;19939;-67
2023/05/07 05:39:18;;;;;;;;;;;;;;;23.65;53.24;96542.31;5014064;28;19921;-67
2023/05/07 05:41:43;;;;;;;;;;;;;;;24.54;49.18;96543.63;5036884;28;19971;-65
2023/05/07 05:44:08;;;;;;;;;;;;;;;24.92;48.79;96548.00;5016756;28;19921;-66
2023/05/07 05:46:34;;;;;;;;;;;;;;;25.91;45.96;96544.00;5020984;28;19928;-69
2023/05/07 05:49:00;;;;;;;;;;;;;;;26.18;44.18;96545.16;5021083;28;19979;-68
2023/05/07 05:51:26;;;;;;;;;;;;;;;26.18;43.44;96547.16;5016897;28;19917;-67
2023/05/07 05:53:51;;;;;;;;;;;;;;;26.17;42.78;96548.44;5022298;28;19917;-70
2023/05/07 05:56:16;;;;;;;;;;;;;;;25.65;44.59;96552.00;5016965;28;19983;-66
2023/05/07 05:58:42;;;;;;;;;;;;;;;25.92;43.57;96553.94;5045694;28;19951;-67
2023/05/07 06:01:07;;;;;;;;;;;;;;;26.30;43.40;96546.19;5052959;28;19921;-67
2023/05/07 06:03:32;;;;;;;;;;;;;;;26.69;42.70;96555.50;5055181;28;19929;-67
2023/05/07 06:05:59;;;;;;;;;;;;;;;26.41;42.68;96548.47;5041506;28;20328;-67
2023/05/07 06:08:25;;;;;;;;;;;;;;;26.95;42.00;96555.00;5028877;28;19986;-70
2023/05/07 06:10:50;;;;;;;;;;;;;;;26.65;42.94;96560.53;5041616;28;19917;-69
2023/05/07 06:13:15;;;;;;;;;;;;;;;26.54;42.56;96551.03;5036191;28;19917;-68
2023/05/07 06:15:40;;;;;;;;;;;;;;;24.08;47.28;96546.25;5041230;28;19924;-68
2023/05/07 06:18:06;;;;;;;;;;;;;;;22.84;50.37;96553.19;5036667;28;19994;-69
2023/05/07 06:20:31;;;;;;;;;;;;;;;19.39;64.69;96543.91;5041011;28;19921;-68
2023/05/07 06:22:56;;;;;;;;;;;;;;;20.21;65.87;96541.28;5042152;28;20449;-67
2023/05/07 06:25:21;;;;;;;;;;;;;;;23.18;56.44;96548.84;5040573;28;20054;-68
2023/05/07 06:27:47;;;;;;;;;;;;;;;23.19;53.88;96548.38;5044663;28;19917;-68
2023/05/07 06:30:12;;;;;;;;;;;;;;;23.01;55.10;96554.59;5040206;28;19923;-68
2023/05/07 06:32:38;;;;;;;;;;;;;;;24.50;50.39;96551.34;5045409;28;20451;-69
2023/05/07 06:35:03;;;;;;;;;;;;;;;24.95;48.61;96555.47;5041229;28;19917;-64
2023/05/07 06:37:28;;;;;;;;;;;;;;;26.70;44.25;96567.50;5023888;28;20357;-69
2023/05/07 06:39:53;;;;;;;;;;;;;;;26.50;43.50;96563.22;5025081;28;19921;-69
2023/05/07 06:42:19;;;;;;;;;;;;;;;27.76;41.56;96570.06;5021161;28;19921;-66
2023/05/07 06:44:44;;;;;;;;;;;;;;;28.41;40.41;96578.56;5025095;28;20325;-69
2023/05/07 06:47:09;;;;;;;;;;;;;;;29.15;38.19;96575.50;5020231;28;20298;-68
2023/05/07 06:49:35;;;;;;;;;;;;;;;28.58;39.52;96573.19;5024871;28;20397;-69
2023/05/07 06:52:00;;;;;;;;;;;;;;;28.21;39.47;96580.03;5025468;28;19927;-68
2023/05/07 06:54:25;;;;;;;;;;;;;;;26.10;42.91;96569.97;5017243;28;19967;-69
2023/05/07 06:56:50;;;;;;;;;;;;;;;24.05;48.35;96566.75;5026364;28;19921;-68
2023/05/07 06:59:16;;;;;;;;;;;;;;;25.38;46.10;96569.66;5050779;28;20420;-68
2023/05/07 07:01:41;;;;;;;;;;;;;;;25.13;46.62;96567.94;5044819;28;20401;-68
2023/05/07 07:04:07;;;;;;;;;;;;;;;24.91;47.69;96571.66;5050312;28;19921;-68
2023/05/07 07:06:32;;;;;;;;;;;;;;;26.22;42.99;96579.44;5064319;28;20301;-68
2023/05/07 07:08:58;;;;;;;;;;;;;;;25.81;44.27;96567.69;5038638;28;19916;-69
2023/05/07 07:11:23;;;;;;;;;;;;;;;26.30;43.19;96577.81;5039234;28;20402;-68
2023/05/07 07:13:48;;;;;;;;;;;;;;;27.78;41.25;96585.19;5044373;28;19917;-68
2023/05/07 07:16:13;;;;;;;;;;;;;;;28.38;39.73;96580.31;5038376;28;19923;-67
2023/05/07 07:18:39;;;;;;;;;;;;;;;28.05;40.11;96586.19;5043890;28;19938;-68
2023/05/07 07:21:04;;;;;;;;;;;;;;;27.03;42.08;96584.28;5039341;28;19956;-61
2023/05/07 07:23:30;;;;;;;;;;;;;;;28.00;40.00;96581.25;5044173;28;19921;-66
2023/05/07 07:25:55;;;;;;;;;;;;;;;28.21;39.92;96579.28;5044344;28;19917;-68
2023/05/07 07:28:21;;;;;;;;;;;;;;;28.52;39.30;96590.00;5039685;28;21378;-67
2023/05/07 07:30:46;;;;;;;;;;;;;;;28.57;39.32;96585.72;5044401;28;19920;-67
2023/05/07 07:33:11;;;;;;;;;;;;;;;28.01;39.39;96588.44;5038993;28;20011;-67
2023/05/07 07:35:37;;;;;;;;;;;;;;;24.42;46.34;96578.09;5036776;28;20489;-67
2023/05/07 07:38:02;;;;;;;;;;;;;;;24.22;48.56;96579.25;5018935;28;19921;-65
2023/05/07 07:40:27;;;;;;;;;;;;;;;24.59;47.95;96584.22;5019952;28;20024;-67
2023/05/07 07:42:53;;;;;;;;;;;;;;;26.27;43.13;96592.03;5023849;28;19932;-67
2023/05/07 07:45:18;;;;;;;;;;;;;;;27.16;41.61;96586.84;5019272;28;19921;-66
2023/05/07 07:47:43;;;;;;;;;;;;;;;27.43;40.86;96590.72;5023009;28;20366;-65
2023/05/07 07:50:09;;;;;;;;;;;;;;;27.37;41.67;96595.44;5018933;28;20426;-66
2023/05/07 07:52:34;;;;;;;;;;;;;;;27.61;41.05;96601.03;5022484;28;19924;-66
2023/05/07 07:55:00;;;;;;;;;;;;;;;27.39;40.98;96596.53;5022714;28;19971;-69
2023/05/07 07:57:25;;;;;;;;;;;;;;;27.39;40.96;96609.81;5019075;28;20385;-69
2023/05/07 07:59:51;;;;;;;;;;;;;;;25.74;44.81;96601.69;5053819;28;19917;-69
2023/05/07 08:02:16;;;;;;;;;;;;;;;25.24;45.78;96601.88;5024282;28;20369;-69
2023/05/07 08:04:43;;;;;;;;;;;;;;;25.32;46.01;96607.97;5059978;28;19983;-67
2023/05/07 08:07:08;;;;;;;;;;;;;;;24.83;46.46;96612.44;5039673;28;19954;-68
2023/05/07 08:09:34;;;;;;;;;;;;;;;25.31;45.65;96606.41;5055206;28;19955;-66
2023/05/07 08:11:59;;;;;;;;;;;;;;;25.45;45.14;96617.00;5056762;28;19928;-67
2023/05/07 08:14:24;;;;;;;;;;;;;;;24.87;46.31;96603.88;5041006;28;20293;-67
2023/05/07 08:16:50;;;;;;;;;;;;;;;24.70;46.32;96608.97;5042931;28;19917;-68
2023/05/07 08:19:15;;;;;;;;;;;;;;;25.02;46.28;96610.41;5037197;28;19917;-68
2023/05/07 08:21:40;;;;;;;;;;;;;;;25.35;46.49;96615.44;5043129;28;19917;-68
2023/05/07 08:24:06;;;;;;;;;;;;;;;25.30;46.93;96616.84;5020616;28;19943;-69
2023/05/07 08:26:31;;;;;;;;;;;;;;;24.85;47.14;96615.53;5043193;28;19938;-70
2023/05/07 08:28:56;;;;;;;;;;;;;;;24.98;46.95;96613.38;5042579;28;20007;-67
2023/05/07 08:31:21;;;;;;;;;;;;;;;25.15;46.40;96608.25;5038080;28;20542;-68
2023/05/07 08:33:47;;;;;;;;;;;;;;;25.79;45.66;96617.88;5042461;28;20374;-68
2023/05/07 08:36:12;;;;;;;;;;;;;;;25.70;46.14;96615.09;5028081;28;20326;-66
2023/05/07 08:38:40;;;;;;;;;;;;;;;26.32;43.46;96611.03;5024450;28;20362;-68
2023/05/07 08:41:07;;;;;;;;;;;;;;;26.15;43.25;96615.50;5031919;28;19924;-68
2023/05/07 08:43:32;;;;;;;;;;;;;;;26.09;43.14;96623.75;5033538;28;19925;-71
2023/05/07 08:46:01;;;;;;;;;;;;;;;26.07;42.30;96617.84;5020105;28;20141;-68
2023/05/07 08:48:27;;;;;;;;;;;;;;;26.65;42.43;96627.94;5017709;28;19974;-66
2023/05/07 08:50:52;;;;;;;;;;;;;;;25.96;43.46;96614.75;5023243;28;20348;-68
2023/05/07 08:53:17;;;;;;;;;;;;;;;25.25;45.61;96623.09;5018087;28;19917;-67
2023/05/07 08:55:43;;;;;;;;;;;;;;;25.24;44.29;96620.72;5022752;28;20321;-68
2023/05/07 08:58:08;;;;;;;;;;;;;;;24.45;46.95;96618.34;5018500;28;20274;-68
2023/05/07 09:00:36;;;;;;;;;;;;;;;24.63;46.78;96615.63;5030136;28;19923;-67
2023/05/07 09:03:01;;;;;;;;;;;;;;;25.49;44.09;96616.84;5054994;28;19917;-68
2023/05/07 09:05:27;;;;;;;;;;;;;;;25.48;43.98;96613.28;5037442;28;19928;-67
2023/05/07 09:07:52;;;;;;;;;;;;;;;25.71;44.39;96613.84;5042206;28;19928;-66
2023/05/07 09:10:17;;;;;;;;;;;;;;;25.67;43.62;96611.19;5038960;28;20300;-68
2023/05/07 09:12:42;;;;;;;;;;;;;;;24.83;45.45;96612.44;5039399;28;19917;-67
2023/05/07 09:15:08;;;;;;;;;;;;;;;25.79;43.81;96605.91;5034241;28;19987;-68
2023/05/07 09:17:33;;;;;;;;;;;;;;;25.71;44.07;96608.25;5042267;28;19920;-69
2023/05/07 09:20:03;;;;;;;;;;;;;;;26.40;42.72;96615.06;5042375;28;19921;-68
2023/05/07 09:22:31;;;;;;;;;;;;;;;26.25;43.12;96608.56;5038305;28;19967;-65
2023/05/07 09:24:56;;;;;;;;;;;;;;;26.36;41.95;96614.44;5042384;28;19921;-69
2023/05/07 09:27:21;;;;;;;;;;;;;;;27.51;39.15;96620.00;5036678;28;19931;-70
2023/05/07 09:29:46;;;;;;;;;;;;;;;27.05;40.33;96614.72;5041329;28;19964;-68
2023/05/07 09:32:12;;;;;;;;;;;;;;;26.96;40.62;96617.63;5036454;28;19923;-67
2023/05/07 09:34:37;;;;;;;;;;;;;;;27.22;39.89;96613.03;5042005;28;19972;-66
2023/05/07 09:37:03;;;;;;;;;;;;;;;27.36;40.08;96613.59;5021350;28;19987;-64
2023/05/07 09:39:42;;;;;;;;;;;;;;;27.68;39.31;96608.28;5022982;28;19918;-70
2023/05/07 09:42:07;;;;;;;;;;;;;;;28.59;37.42;96614.97;5018621;28;19921;-69
2023/05/07 09:44:33;;;;;;;;;;;;;;;27.44;38.93;96614.75;5021821;28;19925;-67
2023/05/07 09:46:59;;;;;;;;;;;;;;;27.34;39.01;96608.44;5021381;28;19921;-69
2023/05/07 09:49:29;;;;;;;;;;;;;;;27.49;39.65;96608.47;5017717;28;19921;-69
2023/05/07 09:51:55;;;;;;;;;;;;;;;27.35;38.40;96607.19;5021409;28;19921;-68
2023/05/07 09:54:20;;;;;;;;;;;;;;;26.62;39.84;96600.03;5018023;28;19963;-68
2023/05/07 09:56:47;;;;;;;;;;;;;;;27.85;39.59;96609.38;5021619;28;20389;-67
2023/05/07 09:59:14;;;;;;;;;;;;;;;26.57;41.66;96603.44;5025095;28;20385;-69
2023/05/07 10:01:40;;;;;;;;;;;;;;;26.15;42.71;96593.81;5054927;28;20003;-69
2023/05/07 10:04:08;;;;;;;;;;;;;;;25.31;44.08;96590.38;5030775;28;20324;-69
2023/05/07 10:06:34;;;;;;;;;;;;;;;25.55;44.30;96593.31;5045031;28;19928;-69
2023/05/07 10:08:59;;;;;;;;;;;;;;;25.00;46.02;96593.31;5045175;28;19916;-69
2023/05/07 10:11:24;;;;;;;;;;;;;;;25.40;44.72;96586.00;5023833;28;20387;-69
2023/05/07 10:13:52;;;;;;;;;;;;;;;25.52;43.86;96590.69;5037377;28;19925;-68
2023/05/07 10:16:17;;;;;;;;;;;;;;;25.61;44.03;96589.88;5040412;28;20012;-69
2023/05/07 10:18:43;;;;;;;;;;;;;;;25.56;43.83;96586.44;5045659;28;19995;-68
2023/05/07 10:21:11;;;;;;;;;;;;;;;24.94;44.82;96586.78;5041076;28;19920;-68
2023/05/07 10:23:36;;;;;;;;;;;;;;;24.14;46.38;96582.78;5044777;28;20835;-68
2023/05/07 10:26:03;;;;;;;;;;;;;;;24.83;45.07;96570.41;5044820;28;19921;-66
2023/05/07 10:28:30;;;;;;;;;;;;;;;24.65;44.91;96581.56;5026793;28;19996;-67
2023/05/07 10:31:04;;;;;;;;;;;;;;;24.48;46.39;96579.03;5045157;28;19917;-67
2023/05/07 10:33:30;;;;;;;;;;;;;;;24.47;46.99;96571.88;5043700;28;19917;-67
2023/05/07 10:35:59;;;;;;;;;;;;;;;24.33;47.50;96570.44;5037354;28;19971;-68
2023/05/07 10:38:25;;;;;;;;;;;;;;;23.93;46.78;96573.22;5020258;28;20382;-68
2023/05/07 10:40:50;;;;;;;;;;;;;;;24.26;46.12;96565.13;5039993;28;20290;-67
2023/05/07 10:43:15;;;;;;;;;;;;;;;24.26;46.31;96565.13;5020117;28;19928;-66
2023/05/07 10:45:41;;;;;;;;;;;;;;;23.70;47.81;96558.47;5023617;28;19971;-67
2023/05/07 10:48:08;;;;;;;;;;;;;;;24.19;47.47;96554.22;5020336;28;19925;-68
2023/05/07 10:50:33;;;;;;;;;;;;;;;24.58;46.69;96549.06;5039451;28;20019;-66
2023/05/07 10:53:17;;;;;;;;;;;;;;;24.78;46.62;96557.81;5040218;28;20020;-67
2023/05/07 10:55:43;;;;;;;;;;;;;;;24.46;46.69;96555.53;5024081;28;19953;-66
2023/05/07 10:58:20;;;;;;;;;;;;;;;24.17;46.90;96551.88;5019972;28;20404;-65
2023/05/07 11:00:46;;;;;;;;;;;;;;;24.43;47.45;96535.63;5039861;28;19916;-66
2023/05/07 11:03:11;;;;;;;;;;;;;;;24.54;47.53;96548.41;5026604;28;19917;-67
2023/05/07 11:05:38;;;;;;;;;;;;;;;24.23;47.75;96543.66;5024052;28;19923;-67
2023/05/07 11:08:04;;;;;;;;;;;;;;;24.23;48.73;96540.84;5018542;28;20002;-66
2023/05/07 11:10:48;;;;;;;;;;;;;;;23.83;48.94;96541.66;5041335;28;20365;-67
2023/05/07 11:13:14;;;;;;;;;;;;;;;23.64;49.62;96544.31;5034531;28;20031;-68
2023/05/07 11:15:41;;;;;;;;;;;;;;;23.58;50.36;96537.75;5025574;28;19921;-67
2023/05/07 11:18:07;;;;;;;;;;;;;;;23.61;50.23;96530.47;5034938;28;20015;-67
2023/05/07 11:20:52;;;;;;;;;;;;;;;23.92;51.11;96527.69;5021464;28;19959;-67
2023/05/07 11:23:33;;;;;;;;;;;;;;;24.07;49.74;96529.94;5022274;28;19921;-68
2023/05/07 11:25:59;;;;;;;;;;;;;;;24.20;50.03;96530.56;5034192;28;19960;-69
2023/05/07 11:28:24;;;;;;;;;;;;;;;23.75;50.11;96532.72;5044093;28;20011;-67
2023/05/07 11:30:50;;;;;;;;;;;;;;;23.79;49.88;96529.78;5026622;28;20404;-67
2023/05/07 11:33:17;;;;;;;;;;;;;;;23.68;51.00;96530.22;5040000;28;19917;-65
2023/05/07 11:35:42;;;;;;;;;;;;;;;24.34;50.54;96521.59;5039149;28;20351;-66
2023/05/07 11:38:07;;;;;;;;;;;;;;;24.37;49.33;96533.91;5019248;28;19917;-68
2023/05/07 11:40:33;;;;;;;;;;;;;;;24.18;49.50;96519.88;5006815;28;20063;-68
2023/05/07 11:42:58;;;;;;;;;;;;;;;24.14;49.77;96521.25;5023578;28;20011;-67
2023/05/07 11:45:26;;;;;;;;;;;;;;;24.69;48.25;96518.59;5019565;28;20213;-66
2023/05/07 11:47:52;;;;;;;;;;;;;;;25.00;48.02;96521.22;5027041;28;19984;-68
2023/05/07 11:50:17;;;;;;;;;;;;;;;25.28;47.35;96518.44;5029578;28;19917;-67
2023/05/07 11:52:50;;;;;;;;;;;;;;;24.85;47.48;96516.72;5027778;28;19939;-67
2023/05/07 11:55:17;;;;;;;;;;;;;;;24.85;47.05;96517.50;5019608;28;19923;-67
2023/05/07 11:57:43;;;;;;;;;;;;;;;24.82;49.05;96515.63;5023100;28;19917;-67
2023/05/07 12:00:09;;;;;;;;;;;;;;;24.83;49.13;96508.81;5019901;28;19924;-67
2023/05/07 12:02:34;;;;;;;;;;;;;;;24.98;48.05;96506.91;5051710;28;19974;-67
2023/05/07 12:05:00;;;;;;;;;;;;;;;25.16;48.61;96513.75;5041840;28;19962;-67
2023/05/07 12:07:25;;;;;;;;;;;;;;;25.23;47.82;96512.63;5059145;28;19917;-68
2023/05/07 12:09:51;;;;;;;;;;;;;;;25.53;45.74;96508.09;5063930;28;19916;-67
2023/05/07 12:12:17;;;;;;;;;;;;;;;25.30;46.65;96512.34;5058921;28;20377;-67
2023/05/07 12:14:43;;;;;;;;;;;;;;;25.50;46.12;96515.44;5065077;28;19931;-68
2023/05/07 12:17:09;;;;;;;;;;;;;;;25.55;46.30;96506.41;5062124;28;19941;-66
2023/05/07 12:19:38;;;;;;;;;;;;;;;25.46;45.78;96514.03;5065639;28;20055;-67
2023/05/07 12:22:03;;;;;;;;;;;;;;;25.52;45.94;96512.16;5059392;28;19927;-65
2023/05/07 12:24:29;;;;;;;;;;;;;;;25.54;45.14;96504.06;5064020;28;20273;-67
2023/05/07 12:26:54;;;;;;;;;;;;;;;25.97;44.17;96501.28;5030869;28;20362;-68
2023/05/07 12:29:23;;;;;;;;;;;;;;;25.84;42.69;96509.88;5033340;28;19917;-67
2023/05/07 12:31:49;;;;;;;;;;;;;;;26.02;42.89;96501.41;5043158;28;19924;-65
2023/05/07 12:34:15;;;;;;;;;;;;;;;26.31;43.63;96495.16;5038964;28;20121;-67
2023/05/07 12:36:40;;;;;;;;;;;;;;;26.50;43.40;96495.03;5029844;28;20011;-68